createdAt,value
2022-08-16T00:03:13.635Z,22.00
2022-08-16T00:08:36.099Z,22.00
2022-08-16T00:13:25.693Z,21.90
2022-08-16T00:18:32.839Z,21.90
2022-08-16T00:23:40.375Z,21.80
2022-08-16T00:28:45.722Z,21.80
2022-08-16T00:33:51.457Z,21.80
2022-08-16T00:38:58.334Z,21.70
2022-08-16T00:44:11.276Z,21.70
2022-08-16T00:49:19.571Z,21.60
2022-08-16T00:54:26.808Z,21.60
2022-08-16T00:59:35.789Z,21.50
2022-08-16T01:04:42.857Z,21.40
2022-08-16T01:09:49.896Z,21.40
2022-08-16T01:14:58.297Z,21.30
2022-08-16T01:20:23.702Z,21.30
2022-08-16T01:25:18.334Z,21.20
2022-08-16T01:30:31.337Z,21.20
2022-08-16T01:35:42.270Z,21.10
2022-08-16T01:40:49.477Z,21.10
2022-08-16T01:45:58.317Z,21.00
2022-08-16T01:51:07.955Z,21.00
2022-08-16T01:56:24.983Z,20.90
2022-08-16T02:01:20.188Z,20.90
2022-08-16T02:06:34.335Z,20.90
2022-08-16T02:11:47.883Z,20.80
2022-08-16T02:16:41.027Z,20.80
2022-08-16T02:22:08.319Z,20.70
2022-08-16T02:26:58.566Z,20.70
2022-08-16T02:32:51.100Z,20.70
2022-08-16T02:37:12.627Z,20.60
2022-08-16T02:42:19.588Z,20.60
2022-08-16T02:47:25.773Z,20.60
2022-08-16T02:52:32.139Z,20.50
2022-08-16T02:57:42.370Z,20.50
2022-08-16T03:02:46.706Z,20.50
2022-08-16T03:07:53.506Z,20.40
2022-08-16T03:12:59.941Z,20.40
2022-08-16T03:18:05.416Z,20.40
2022-08-16T03:23:12.871Z,20.40
2022-08-16T03:28:20.934Z,20.40
2022-08-16T03:33:29.771Z,20.40
2022-08-16T03:38:35.315Z,20.30
2022-08-16T03:43:51.707Z,20.30
2022-08-16T03:48:47.922Z,20.20
2022-08-16T03:54:00.795Z,20.20
2022-08-16T03:59:02.052Z,20.20
2022-08-16T04:04:07.608Z,20.10
2022-08-16T04:09:14.478Z,20.10
2022-08-16T04:14:32.306Z,20.10
2022-08-16T04:19:31.719Z,20.00
2022-08-16T04:24:36.040Z,20.10
2022-08-16T04:29:43.946Z,20.10
2022-08-16T04:34:50.412Z,20.20
2022-08-16T04:39:57.235Z,20.30
2022-08-16T04:45:04.468Z,20.40
2022-08-16T04:50:18.472Z,20.40
2022-08-16T04:55:31.808Z,20.40
2022-08-16T05:00:36.083Z,20.50
2022-08-16T05:05:45.166Z,20.50
2022-08-16T05:10:49.965Z,20.60
2022-08-16T05:15:55.657Z,20.70
2022-08-16T05:21:11.047Z,20.80
2022-08-16T05:26:20.244Z,20.90
2022-08-16T05:31:17.006Z,21.10
2022-08-16T05:36:23.182Z,21.20
2022-08-16T05:41:30.672Z,21.40
2022-08-16T05:46:36.462Z,21.60
2022-08-16T05:51:45.809Z,21.80
2022-08-16T05:56:51.544Z,21.90
2022-08-16T06:01:57.380Z,22.00
2022-08-16T06:07:06.800Z,22.30
2022-08-16T06:12:27.074Z,22.40
2022-08-16T06:17:23.487Z,22.60
2022-08-16T06:22:39.421Z,22.80
2022-08-16T06:27:39.850Z,22.90
2022-08-16T06:32:48.539Z,23.00
2022-08-16T06:37:51.365Z,23.30
2022-08-16T06:42:57.918Z,23.40
2022-08-16T06:48:03.436Z,23.70
2022-08-16T06:53:10.486Z,24.00
2022-08-16T06:58:21.870Z,24.30
2022-08-16T07:03:27.611Z,24.60
2022-08-16T07:08:30.518Z,25.00
2022-08-16T07:14:22.996Z,25.20
2022-08-16T07:18:59.211Z,25.50
2022-08-16T07:23:58.066Z,25.80
2022-08-16T07:29:02.138Z,25.90
2022-08-16T07:34:10.259Z,26.10
2022-08-16T07:39:19.008Z,26.50
2022-08-16T07:44:26.755Z,26.90
2022-08-16T07:49:32.580Z,27.20
2022-08-16T07:54:45.598Z,27.50
2022-08-16T07:59:46.038Z,27.60
2022-08-16T08:04:51.975Z,28.00
2022-08-16T08:09:58.678Z,28.20
2022-08-16T08:15:09.692Z,28.50
2022-08-16T08:20:26.084Z,28.70
2022-08-16T08:25:23.398Z,29.00
2022-08-16T08:30:52.295Z,29.40
2022-08-16T08:35:35.990Z,29.60
2022-08-16T08:40:41.492Z,29.80
2022-08-16T08:45:49.171Z,30.10
2022-08-16T08:50:54.319Z,30.70
2022-08-16T08:56:23.306Z,31.00
2022-08-16T09:01:10.197Z,31.00
2022-08-16T09:06:18.429Z,31.20
2022-08-16T09:11:24.288Z,31.40
2022-08-16T09:16:57.688Z,31.30
2022-08-16T09:21:40.836Z,31.50
2022-08-16T09:26:47.910Z,32.30
2022-08-16T09:31:58.361Z,32.80
2022-08-16T09:37:17.900Z,33.10
2022-08-16T09:42:11.915Z,33.50
2022-08-16T09:47:18.919Z,33.70
2022-08-16T09:52:26.468Z,34.00
2022-08-16T09:57:34.402Z,34.20
2022-08-16T10:02:44.224Z,34.40
2022-08-16T10:07:47.445Z,34.50
2022-08-16T10:13:10.347Z,34.50
2022-08-16T10:18:48.286Z,34.40
2022-08-16T10:23:24.631Z,34.90
2022-08-16T10:28:40.309Z,35.00
2022-08-16T10:33:40.364Z,34.90
2022-08-16T10:38:45.827Z,35.10
2022-08-16T10:43:51.511Z,35.70
2022-08-16T10:48:57.163Z,34.40
2022-08-16T10:54:04.826Z,33.10
2022-08-16T11:09:28.631Z,33.20
2022-08-16T11:14:31.879Z,33.10
2022-08-16T11:20:00.625Z,32.80
2022-08-16T11:24:44.891Z,33.50
2022-08-16T11:29:54.851Z,33.60
2022-08-16T11:35:13.824Z,34.20
2022-08-16T11:40:10.099Z,34.00
2022-08-16T11:45:18.980Z,33.00
2022-08-16T11:50:24.878Z,32.00
2022-08-16T11:55:30.263Z,31.50
2022-08-16T12:00:51.325Z,31.30
2022-08-16T12:05:46.229Z,30.80
2022-08-16T12:10:53.282Z,30.30
2022-08-16T12:15:58.584Z,30.10
2022-08-16T12:21:04.764Z,30.00
2022-08-16T12:26:10.254Z,29.90
2022-08-16T12:31:17.327Z,29.70
2022-08-16T12:36:23.683Z,29.30
2022-08-16T12:41:29.261Z,28.60
2022-08-16T12:46:36.869Z,28.30
2022-08-16T12:51:59.360Z,28.30
2022-08-16T12:56:50.933Z,28.10
2022-08-16T13:01:58.543Z,28.10
2022-08-16T13:07:06.127Z,27.90
2022-08-16T13:12:29.029Z,27.60
2022-08-16T13:17:34.586Z,27.20
2022-08-16T13:22:45.400Z,26.70
2022-08-16T13:28:02.494Z,26.40
2022-08-16T13:33:00.600Z,26.30
2022-08-16T13:38:06.373Z,26.10
2022-08-16T13:43:12.043Z,25.80
2022-08-16T13:48:21.782Z,25.40
2022-08-16T13:53:25.990Z,24.70
2022-08-16T13:58:34.795Z,24.10
2022-08-16T14:03:40.090Z,23.80
2022-08-16T14:08:45.588Z,23.50
2022-08-16T14:13:52.931Z,23.20
2022-08-16T14:18:58.356Z,22.80
2022-08-16T14:24:08.126Z,22.70
2022-08-16T14:29:12.679Z,22.30
2022-08-16T14:34:18.890Z,22.20
2022-08-16T14:39:25.618Z,22.00
2022-08-16T14:44:30.971Z,22.00
2022-08-16T14:49:37.875Z,21.80
2022-08-16T14:54:45.180Z,22.10
2022-08-16T14:59:52.199Z,22.20
2022-08-16T15:04:58.710Z,22.30
2022-08-16T15:10:05.018Z,22.30
2022-08-16T15:15:16.613Z,22.20
2022-08-16T15:20:21.589Z,22.20
2022-08-16T15:25:31.433Z,22.20
2022-08-16T15:30:56.739Z,22.30
2022-08-16T15:35:47.595Z,22.30
2022-08-16T15:40:58.565Z,22.30
2022-08-16T15:46:53.962Z,22.30
2022-08-16T15:51:26.368Z,22.10
2022-08-16T15:56:32.052Z,22.00
2022-08-16T16:01:37.394Z,21.80
2022-08-16T16:06:45.091Z,21.90
2022-08-16T16:11:50.474Z,22.00
2022-08-16T16:16:56.936Z,21.90
2022-08-16T16:22:02.355Z,22.00
2022-08-16T16:27:08.081Z,22.10
2022-08-16T16:32:13.600Z,22.00
2022-08-16T16:37:20.641Z,21.90
2022-08-16T16:42:29.882Z,21.90
2022-08-16T16:47:40.558Z,22.00
2022-08-16T16:52:45.121Z,22.10
2022-08-16T16:58:17.973Z,22.20
2022-08-16T17:03:17.279Z,22.40
2022-08-16T17:08:24.219Z,22.50
2022-08-16T17:13:30.133Z,22.60
2022-08-16T17:19:17.095Z,22.60
2022-08-16T17:23:58.180Z,22.60
2022-08-16T17:28:58.201Z,22.70
2022-08-16T17:33:58.631Z,22.60
2022-08-16T17:39:07.852Z,22.70
2022-08-16T17:44:14.784Z,22.70
2022-08-16T17:49:20.265Z,22.70
2022-08-16T17:54:30.640Z,22.50
2022-08-16T17:59:32.980Z,22.40
2022-08-16T18:04:48.236Z,22.30
2022-08-16T18:09:47.009Z,22.20
2022-08-16T18:14:54.943Z,22.00
2022-08-16T18:19:59.546Z,22.00
2022-08-16T18:25:06.842Z,21.90
2022-08-16T18:30:14.740Z,21.80
2022-08-16T18:35:21.652Z,21.70
2022-08-16T18:40:27.051Z,21.60
2022-08-16T18:45:35.288Z,21.50
2022-08-16T18:51:04.918Z,21.40
2022-08-16T18:55:52.965Z,21.40
2022-08-16T19:00:58.948Z,21.50
2022-08-16T19:06:13.839Z,21.50
2022-08-16T19:11:22.742Z,21.50
2022-08-16T19:16:28.048Z,21.50
2022-08-16T19:21:33.384Z,21.40
2022-08-16T19:26:38.925Z,21.40
2022-08-16T19:31:44.650Z,21.30
2022-08-16T19:36:51.406Z,21.30
2022-08-16T19:42:16.954Z,21.20
2022-08-16T19:47:23.297Z,21.10
2022-08-16T19:52:32.167Z,21.00
2022-08-16T19:57:39.130Z,20.90
2022-08-16T20:03:03.133Z,20.90
2022-08-16T20:08:08.798Z,20.80
2022-08-16T20:13:19.746Z,20.70
2022-08-16T20:18:26.222Z,20.60
2022-08-16T20:23:31.736Z,20.60
2022-08-16T20:28:51.947Z,20.50
2022-08-16T20:33:44.277Z,20.50
2022-08-16T20:38:50.376Z,20.50
2022-08-16T20:43:55.873Z,20.40
2022-08-16T20:49:01.407Z,20.40
2022-08-16T20:54:06.919Z,20.30
2022-08-16T20:59:12.757Z,20.20
2022-08-16T21:04:19.491Z,20.20
2022-08-16T21:09:31.577Z,20.20
2022-08-16T21:14:37.882Z,20.20
2022-08-16T21:19:45.209Z,20.20
2022-08-16T21:24:54.112Z,20.20
2022-08-16T21:29:57.907Z,20.10
2022-08-16T21:35:07.635Z,20.10
2022-08-16T21:40:14.837Z,20.00
2022-08-16T21:45:20.637Z,19.90
2022-08-16T21:50:27.549Z,19.80
2022-08-16T21:55:33.102Z,19.80
2022-08-16T22:00:39.683Z,19.80
2022-08-16T22:06:13.393Z,19.80
2022-08-16T22:11:06.266Z,19.70
2022-08-16T22:16:01.711Z,19.60
2022-08-16T22:21:07.328Z,19.60
2022-08-16T22:26:15.012Z,19.50
2022-08-16T22:31:20.504Z,19.40
2022-08-16T22:36:29.162Z,19.40
2022-08-16T22:41:35.884Z,19.40
2022-08-16T22:46:41.531Z,19.30
2022-08-16T22:51:47.161Z,19.20
2022-08-16T22:56:53.047Z,19.10
2022-08-16T23:01:59.687Z,19.10
2022-08-16T23:07:06.906Z,19.00
2022-08-16T23:12:12.551Z,19.00
2022-08-16T23:17:19.842Z,18.90
2022-08-16T23:22:25.265Z,18.90
2022-08-16T23:27:30.753Z,18.80
2022-08-16T23:32:37.945Z,18.90
2022-08-16T23:37:44.058Z,18.80
2022-08-16T23:43:07.675Z,18.80
2022-08-16T23:48:15.206Z,18.90
2022-08-16T23:53:32.732Z,18.90
2022-08-16T23:58:41.062Z,18.80
